createdAt,value
2018-07-02T00:02:13.769Z,39.30
2018-07-02T00:04:42.255Z,39.40
2018-07-02T00:07:16.483Z,39.20
2018-07-02T00:09:45.257Z,39.20
2018-07-02T00:12:14.668Z,39.30
2018-07-02T00:14:43.147Z,39.50
2018-07-02T00:17:11.892Z,39.50
2018-07-02T00:19:40.435Z,39.60
2018-07-02T00:22:09.000Z,39.70
2018-07-02T00:24:38.153Z,39.80
2018-07-02T00:27:06.798Z,39.80
2018-07-02T00:29:35.225Z,40.10
2018-07-02T00:32:03.674Z,39.90
2018-07-02T00:34:31.936Z,39.90
2018-07-02T00:39:28.254Z,39.90
2018-07-02T00:41:56.573Z,39.80
2018-07-02T00:44:24.811Z,40.00
2018-07-02T00:46:53.134Z,40.00
2018-07-02T00:49:21.496Z,40.00
2018-07-02T00:51:49.856Z,40.10
2018-07-02T00:54:18.440Z,40.10
2018-07-02T00:56:46.732Z,40.10
2018-07-02T00:59:15.050Z,40.30
2018-07-02T01:01:43.418Z,40.40
2018-07-02T01:04:11.987Z,40.30
2018-07-02T01:06:40.358Z,40.30
2018-07-02T01:09:09.503Z,40.30
2018-07-02T01:11:37.811Z,40.40
2018-07-02T01:14:06.544Z,40.50
2018-07-02T01:16:34.927Z,40.60
2018-07-02T01:19:03.245Z,41.10
2018-07-02T01:21:31.506Z,40.90
2018-07-02T01:23:59.810Z,41.00
2018-07-02T01:26:28.153Z,40.90
2018-07-02T01:28:56.484Z,41.00
2018-07-02T01:31:24.764Z,41.00
2018-07-02T01:33:53.039Z,41.10
2018-07-02T01:36:21.336Z,41.20
2018-07-02T01:38:49.583Z,41.30
2018-07-02T01:41:17.927Z,41.50
2018-07-02T01:43:46.192Z,41.50
2018-07-02T01:46:14.430Z,41.60
2018-07-02T01:48:42.660Z,41.60
2018-07-02T01:51:11.103Z,41.70
2018-07-02T01:53:40.724Z,41.60
2018-07-02T01:56:09.665Z,41.70
2018-07-02T01:58:38.038Z,41.80
2018-07-02T02:01:06.403Z,41.80
2018-07-02T02:03:34.691Z,42.00
2018-07-02T02:06:03.048Z,41.90
2018-07-02T02:08:31.376Z,41.90
2018-07-02T02:10:59.603Z,42.00
2018-07-02T02:13:27.877Z,42.10
2018-07-02T02:15:56.204Z,42.50
2018-07-02T02:18:24.485Z,43.30
2018-07-02T02:20:52.789Z,45.20
2018-07-02T02:23:21.068Z,43.40
2018-07-02T02:25:49.395Z,44.30
2018-07-02T02:28:17.662Z,42.80
2018-07-02T02:30:46.030Z,42.80
2018-07-02T02:33:14.345Z,43.30
2018-07-02T02:35:42.564Z,43.20
2018-07-02T02:38:10.844Z,44.30
2018-07-02T02:40:39.178Z,43.60
2018-07-02T02:43:07.616Z,44.20
2018-07-02T02:45:35.904Z,43.70
2018-07-02T02:48:04.201Z,44.40
2018-07-02T02:50:32.604Z,43.40
2018-07-02T02:55:29.044Z,44.00
2018-07-02T02:57:57.300Z,43.90
2018-07-02T03:00:25.586Z,44.20
2018-07-02T03:02:53.812Z,44.80
2018-07-02T03:05:22.116Z,44.80
2018-07-02T03:07:50.463Z,43.60
2018-07-02T03:10:18.957Z,44.60
2018-07-02T03:12:47.317Z,44.00
2018-07-02T03:15:15.697Z,45.30
2018-07-02T03:17:44.192Z,44.80
2018-07-02T03:20:12.903Z,44.00
2018-07-02T03:22:41.323Z,45.30
2018-07-02T03:25:11.033Z,44.50
2018-07-02T03:27:39.414Z,44.40
2018-07-02T03:30:07.871Z,44.90
2018-07-02T03:32:36.989Z,44.30
2018-07-02T03:35:05.338Z,44.40
2018-07-02T03:37:34.418Z,46.30
2018-07-02T03:40:03.003Z,45.30
2018-07-02T03:42:31.412Z,44.30
2018-07-02T03:44:59.856Z,44.40
2018-07-02T03:47:29.163Z,44.60
2018-07-02T03:49:57.573Z,44.60
2018-07-02T03:52:26.043Z,45.60
2018-07-02T03:54:54.421Z,46.10
2018-07-02T03:57:22.824Z,45.50
2018-07-02T03:59:51.236Z,45.40
2018-07-02T04:02:19.614Z,45.40
2018-07-02T04:04:48.121Z,45.60
2018-07-02T04:07:16.564Z,45.00
2018-07-02T04:09:45.166Z,46.30
2018-07-02T04:12:14.045Z,46.30
2018-07-02T04:14:42.376Z,45.10
2018-07-02T04:17:10.851Z,45.60
2018-07-02T04:19:39.275Z,46.20
2018-07-02T04:22:08.116Z,46.10
2018-07-02T04:24:36.536Z,45.10
2018-07-02T04:27:05.375Z,46.20
2018-07-02T04:29:34.781Z,46.30
2018-07-02T04:34:31.489Z,46.20
2018-07-02T04:36:59.848Z,46.70
2018-07-02T04:39:28.230Z,45.70
2018-07-02T04:41:56.677Z,46.20
2018-07-02T04:44:25.087Z,45.70
2018-07-02T04:46:53.868Z,45.80
2018-07-02T04:49:22.979Z,45.60
2018-07-02T04:51:51.428Z,44.70
2018-07-02T04:54:20.040Z,44.70
2018-07-02T04:56:48.449Z,44.60
2018-07-02T04:59:16.890Z,44.90
2018-07-02T05:01:45.406Z,44.70
2018-07-02T05:04:13.813Z,44.40
2018-07-02T05:06:42.280Z,44.50
2018-07-02T05:09:10.599Z,44.10
2018-07-02T05:11:39.134Z,44.30
2018-07-02T05:14:07.470Z,44.20
2018-07-02T05:16:35.951Z,44.20
2018-07-02T05:19:04.338Z,44.20
2018-07-02T05:21:33.006Z,44.00
2018-07-02T05:24:01.659Z,44.40
2018-07-02T05:26:31.030Z,44.20
2018-07-02T05:28:59.395Z,44.20
2018-07-02T05:31:27.922Z,44.00
2018-07-02T05:33:56.891Z,44.10
2018-07-02T05:36:25.748Z,44.10
2018-07-02T05:38:54.996Z,43.70
2018-07-02T05:41:24.758Z,43.60
2018-07-02T05:43:53.127Z,43.50
2018-07-02T05:46:23.549Z,43.80
2018-07-02T05:48:52.159Z,43.80
2018-07-02T05:51:20.609Z,43.50
2018-07-02T05:53:49.154Z,43.80
2018-07-02T05:56:17.558Z,43.40
2018-07-02T05:58:46.032Z,43.20
2018-07-02T06:01:15.379Z,43.40
2018-07-02T06:03:44.064Z,43.00
2018-07-02T06:06:12.745Z,43.10
2018-07-02T06:08:41.293Z,42.70
2018-07-02T06:11:09.902Z,42.80
2018-07-02T06:13:38.462Z,42.90
2018-07-02T06:16:06.911Z,43.10
2018-07-02T06:18:35.598Z,43.10
2018-07-02T06:21:04.361Z,43.20
2018-07-02T06:23:32.785Z,42.90
2018-07-02T06:26:01.371Z,42.80
2018-07-02T06:28:29.795Z,43.00
2018-07-02T06:30:58.524Z,42.40
2018-07-02T06:33:27.358Z,42.40
2018-07-02T06:35:56.624Z,42.30
2018-07-02T06:38:25.502Z,42.50
2018-07-02T06:40:54.160Z,41.90
2018-07-02T06:43:22.837Z,41.50
2018-07-02T06:45:51.455Z,41.90
2018-07-02T06:48:20.224Z,42.40
2018-07-02T06:50:49.109Z,41.80
2018-07-02T06:53:17.788Z,41.60
2018-07-02T06:55:46.818Z,41.40
2018-07-02T06:58:15.540Z,41.60
2018-07-02T07:00:44.503Z,41.30
2018-07-02T07:03:13.459Z,41.20
2018-07-02T07:05:42.184Z,40.90
2018-07-02T07:08:11.034Z,41.30
2018-07-02T07:10:39.835Z,41.00
2018-07-02T07:13:08.436Z,41.20
2018-07-02T07:15:37.368Z,40.70
2018-07-02T07:18:06.394Z,40.90
2018-07-02T07:20:35.170Z,40.70
2018-07-02T07:23:04.107Z,40.60
2018-07-02T07:25:32.972Z,40.70
2018-07-02T07:28:01.681Z,40.20
2018-07-02T07:30:30.180Z,40.30
2018-07-02T07:32:59.157Z,39.90
2018-07-02T07:35:28.666Z,39.90
2018-07-02T07:37:57.178Z,40.00
2018-07-02T07:40:25.766Z,40.10
2018-07-02T07:42:54.328Z,39.90
2018-07-02T07:45:22.914Z,39.80
2018-07-02T07:47:51.338Z,39.60
2018-07-02T07:50:19.937Z,39.60
2018-07-02T07:52:48.398Z,39.30
2018-07-02T07:55:17.003Z,39.10
2018-07-02T07:57:45.492Z,39.40
2018-07-02T08:00:14.013Z,39.00
2018-07-02T08:02:42.746Z,39.00
2018-07-02T08:05:11.294Z,38.90
2018-07-02T08:07:39.851Z,39.20
2018-07-02T08:10:08.440Z,39.00
2018-07-02T08:12:37.009Z,38.90
2018-07-02T08:15:05.516Z,38.60
2018-07-02T08:17:34.037Z,38.60
2018-07-02T08:20:02.712Z,38.80
2018-07-02T08:22:31.867Z,38.70
2018-07-02T08:25:00.347Z,39.20
2018-07-02T08:27:28.895Z,38.70
2018-07-02T08:29:57.381Z,38.90
2018-07-02T08:32:25.950Z,37.90
2018-07-02T08:34:54.840Z,37.90
2018-07-02T08:37:24.945Z,37.90
2018-07-02T08:39:53.487Z,37.80
2018-07-02T08:42:22.798Z,37.70
2018-07-02T08:44:51.420Z,37.60
2018-07-02T08:47:19.890Z,37.60
2018-07-02T08:49:48.656Z,37.40
2018-07-02T08:52:17.504Z,37.10
2018-07-02T08:54:46.000Z,37.20
2018-07-02T08:57:14.530Z,36.50
2018-07-02T09:02:11.267Z,36.60
2018-07-02T09:04:39.907Z,36.70
2018-07-02T09:07:08.588Z,36.70
2018-07-02T09:09:37.113Z,35.90
2018-07-02T09:12:05.698Z,35.50
2018-07-02T09:14:35.404Z,35.50
2018-07-02T09:17:03.930Z,35.20
2018-07-02T09:19:33.466Z,34.60
2018-07-02T09:22:01.947Z,34.60
2018-07-02T09:24:30.724Z,33.90
2018-07-02T09:26:59.603Z,33.40
2018-07-02T09:29:28.110Z,32.70
2018-07-02T09:31:56.859Z,32.70
2018-07-02T09:34:25.240Z,32.70
2018-07-02T09:36:54.336Z,32.70
2018-07-02T09:39:23.049Z,32.70
2018-07-02T09:41:51.550Z,32.30
2018-07-02T09:44:20.129Z,31.50
2018-07-02T09:46:48.571Z,31.00
2018-07-02T09:49:17.684Z,30.30
2018-07-02T09:51:46.263Z,29.50
2018-07-02T09:54:14.847Z,28.70
2018-07-02T09:56:43.370Z,28.50
2018-07-02T09:59:11.811Z,27.60
2018-07-02T10:01:40.665Z,27.40
2018-07-02T10:04:09.276Z,27.30
2018-07-02T10:06:37.967Z,26.80
2018-07-02T10:09:09.753Z,26.70
2018-07-02T10:11:38.324Z,26.90
2018-07-02T10:14:06.884Z,27.00
2018-07-02T10:16:35.576Z,27.50
2018-07-02T10:19:04.550Z,28.10
2018-07-02T10:21:33.014Z,28.60
2018-07-02T10:24:01.555Z,29.60
2018-07-02T10:26:30.070Z,29.30
2018-07-02T10:28:58.534Z,29.60
2018-07-02T10:31:27.910Z,30.00
2018-07-02T10:33:56.240Z,30.20
2018-07-02T10:36:24.813Z,31.10
2018-07-02T10:41:21.889Z,30.70
2018-07-02T10:43:50.486Z,31.40
2018-07-02T10:46:18.905Z,31.30
2018-07-02T10:48:47.398Z,31.70
2018-07-02T10:51:15.933Z,32.30
2018-07-02T10:53:44.428Z,31.60
2018-07-02T10:56:12.825Z,31.40
2018-07-02T10:58:41.838Z,31.90
2018-07-02T11:01:10.895Z,32.30
2018-07-02T11:03:39.929Z,32.30
2018-07-02T11:06:08.617Z,32.70
2018-07-02T11:08:37.103Z,32.00
2018-07-02T11:11:05.781Z,32.20
2018-07-02T11:13:34.258Z,32.50
2018-07-02T11:16:02.791Z,32.60
2018-07-02T11:18:31.369Z,32.80
2018-07-02T11:20:59.993Z,33.10
2018-07-02T11:23:29.336Z,33.10
2018-07-02T11:25:57.831Z,33.50
2018-07-02T11:28:26.250Z,32.70
2018-07-02T11:30:55.255Z,32.50
2018-07-02T11:33:23.797Z,32.80
2018-07-02T11:35:52.645Z,33.30
2018-07-02T11:40:49.772Z,32.60
2018-07-02T11:43:18.296Z,33.00
2018-07-02T11:45:46.811Z,33.00
2018-07-02T11:50:44.067Z,32.50
2018-07-02T11:53:12.512Z,32.40
2018-07-02T11:55:41.445Z,32.70
2018-07-02T11:58:09.896Z,32.70
2018-07-02T12:00:39.081Z,32.20
2018-07-02T12:03:07.894Z,31.60
2018-07-02T12:05:36.248Z,31.70
2018-07-02T12:08:04.696Z,31.90
2018-07-02T12:10:33.613Z,32.40
2018-07-02T12:13:02.104Z,31.80
2018-07-02T12:15:30.541Z,31.70
2018-07-02T12:17:59.466Z,32.00
2018-07-02T12:22:56.024Z,32.40
2018-07-02T12:25:25.047Z,32.50
2018-07-02T12:27:54.405Z,32.20
2018-07-02T12:30:23.461Z,31.70
2018-07-02T12:32:51.930Z,31.50
2018-07-02T12:35:20.894Z,31.50
2018-07-02T12:40:18.677Z,31.40
2018-07-02T12:42:47.072Z,31.60
2018-07-02T12:45:15.447Z,31.50
2018-07-02T12:47:43.779Z,31.30
2018-07-02T12:50:12.803Z,31.00
2018-07-02T12:52:41.315Z,31.90
2018-07-02T12:55:09.751Z,31.30
2018-07-02T12:57:38.240Z,31.80
2018-07-02T13:00:06.625Z,32.20
2018-07-02T13:02:35.015Z,31.30
2018-07-02T13:05:03.487Z,31.00
2018-07-02T13:07:31.930Z,30.90
2018-07-02T13:10:00.459Z,31.70
2018-07-02T13:12:28.824Z,31.50
2018-07-02T13:14:57.965Z,31.50
2018-07-02T13:17:26.440Z,31.80
2018-07-02T13:19:54.925Z,31.50
2018-07-02T13:22:23.240Z,31.10
2018-07-02T13:24:51.906Z,31.20
2018-07-02T13:27:20.295Z,30.90
2018-07-02T13:29:48.799Z,31.50
2018-07-02T13:32:17.457Z,31.30
2018-07-02T13:34:45.799Z,31.40
2018-07-02T13:37:14.220Z,31.70
2018-07-02T13:39:42.688Z,32.20
2018-07-02T13:42:11.049Z,31.50
2018-07-02T13:44:39.435Z,31.40
2018-07-02T13:47:07.800Z,31.30
2018-07-02T13:49:36.353Z,31.00
2018-07-02T13:52:04.822Z,31.00
2018-07-02T13:54:33.215Z,31.30
2018-07-02T13:57:01.548Z,31.00
2018-07-02T13:59:30.076Z,30.80
2018-07-02T14:01:58.960Z,31.00
2018-07-02T14:04:27.373Z,30.80
2018-07-02T14:06:55.940Z,30.80
2018-07-02T14:09:24.390Z,30.50
2018-07-02T14:11:53.209Z,30.80
2018-07-02T14:14:21.552Z,30.70
2018-07-02T14:16:50.245Z,31.30
2018-07-02T14:19:18.686Z,31.00
2018-07-02T14:21:47.118Z,30.80
2018-07-02T14:24:15.424Z,31.30
2018-07-02T14:26:43.755Z,31.10
2018-07-02T14:29:12.195Z,32.00
2018-07-02T14:31:40.495Z,32.30
2018-07-02T14:34:08.918Z,30.70
2018-07-02T14:36:37.286Z,30.60
2018-07-02T14:39:09.198Z,30.40
2018-07-02T14:41:37.701Z,30.00
2018-07-02T14:44:06.328Z,30.20
2018-07-02T14:46:34.924Z,29.80
2018-07-02T14:49:03.339Z,30.00
2018-07-02T14:51:31.982Z,29.90
2018-07-02T14:54:01.548Z,29.90
2018-07-02T14:56:30.402Z,29.70
2018-07-02T14:58:58.755Z,30.20
2018-07-02T15:01:27.118Z,30.10
2018-07-02T15:03:55.476Z,30.00
2018-07-02T15:06:23.954Z,29.60
2018-07-02T15:08:52.993Z,29.60
2018-07-02T15:11:21.401Z,29.50
2018-07-02T15:13:50.784Z,29.30
2018-07-02T15:16:19.178Z,29.70
2018-07-02T15:18:47.651Z,29.70
2018-07-02T15:21:16.098Z,29.30
2018-07-02T15:23:44.536Z,29.30
2018-07-02T15:26:13.054Z,29.00
2018-07-02T15:28:41.436Z,28.40
2018-07-02T15:31:10.726Z,28.50
2018-07-02T15:33:39.058Z,28.60
2018-07-02T15:36:07.477Z,29.20
2018-07-02T15:38:35.892Z,29.10
2018-07-02T15:41:04.988Z,28.90
2018-07-02T15:43:33.542Z,28.50
2018-07-02T15:46:02.230Z,28.50
2018-07-02T15:48:30.804Z,29.10
2018-07-02T15:50:59.180Z,29.20
2018-07-02T15:53:27.439Z,29.70
2018-07-02T15:55:56.219Z,28.40
2018-07-02T15:58:24.556Z,28.30
2018-07-02T16:00:52.910Z,29.00
2018-07-02T16:03:21.766Z,28.60
2018-07-02T16:05:50.179Z,28.30
2018-07-02T16:08:18.781Z,28.70
2018-07-02T16:10:47.076Z,28.70
2018-07-02T16:13:15.435Z,28.90
2018-07-02T16:15:43.780Z,28.70
2018-07-02T16:18:12.233Z,28.10
2018-07-02T16:20:40.675Z,28.10
2018-07-02T16:23:09.016Z,29.10
2018-07-02T16:25:37.461Z,28.40
2018-07-02T16:28:06.726Z,28.30
2018-07-02T16:30:35.718Z,28.80
2018-07-02T16:33:04.304Z,28.10
2018-07-02T16:35:32.999Z,28.20
2018-07-02T16:38:01.368Z,28.10
2018-07-02T16:40:30.139Z,28.20
2018-07-02T16:45:26.954Z,27.70
2018-07-02T16:47:55.338Z,28.40
2018-07-02T16:50:24.164Z,28.20
2018-07-02T16:52:52.753Z,28.30
2018-07-02T16:55:21.180Z,28.60
2018-07-02T16:57:49.793Z,28.50
2018-07-02T17:00:18.222Z,28.30
2018-07-02T17:02:46.591Z,28.40
2018-07-02T17:05:14.910Z,28.60
2018-07-02T17:07:43.331Z,28.40
2018-07-02T17:10:12.551Z,29.00
2018-07-02T17:12:40.968Z,29.30
2018-07-02T17:15:09.275Z,28.80
2018-07-02T17:17:37.693Z,28.30
2018-07-02T17:20:06.775Z,28.20
2018-07-02T17:25:03.651Z,28.50
2018-07-02T17:27:34.005Z,27.40
2018-07-02T17:30:02.436Z,27.10
2018-07-02T17:32:30.949Z,27.20
2018-07-02T17:34:59.344Z,27.70
2018-07-02T17:37:27.767Z,27.50
2018-07-02T17:39:56.154Z,28.00
2018-07-02T17:42:24.443Z,28.00
2018-07-02T17:44:52.823Z,28.10
2018-07-02T17:47:23.388Z,28.20
2018-07-02T17:49:51.839Z,27.90
2018-07-02T17:52:21.204Z,28.30
2018-07-02T17:54:49.762Z,28.10
2018-07-02T17:57:18.073Z,27.90
2018-07-02T17:59:46.461Z,28.00
2018-07-02T18:02:14.913Z,28.90
2018-07-02T18:04:43.260Z,28.30
2018-07-02T18:07:11.631Z,28.30
2018-07-02T18:09:39.992Z,28.90
2018-07-02T18:12:08.780Z,28.50
2018-07-02T18:14:37.151Z,28.50
2018-07-02T18:17:05.803Z,29.10
2018-07-02T18:19:34.777Z,29.10
2018-07-02T18:22:03.143Z,28.60
2018-07-02T18:24:31.491Z,28.80
2018-07-02T18:26:59.858Z,28.70
2018-07-02T18:29:28.230Z,28.60
2018-07-02T18:31:57.000Z,28.90
2018-07-02T18:34:25.382Z,29.00
2018-07-02T18:36:54.428Z,29.10
2018-07-02T18:39:22.812Z,29.20
2018-07-02T18:41:51.201Z,29.40
2018-07-02T18:44:19.503Z,30.50
2018-07-02T18:46:47.951Z,31.00
2018-07-02T18:49:16.295Z,29.90
2018-07-02T18:51:44.651Z,29.70
2018-07-02T18:54:13.211Z,29.80
2018-07-02T18:56:41.600Z,30.50
2018-07-02T18:59:09.991Z,31.10
2018-07-02T19:01:38.437Z,31.00
2018-07-02T19:04:06.959Z,31.40
2018-07-02T19:06:35.363Z,31.10
2018-07-02T19:09:06.185Z,31.00
2018-07-02T19:11:34.970Z,31.60
2018-07-02T19:14:03.645Z,33.10
2018-07-02T19:16:32.160Z,33.80
2018-07-02T19:19:00.696Z,33.50
2018-07-02T19:21:30.033Z,33.30
2018-07-02T19:23:58.412Z,32.60
2018-07-02T19:26:26.823Z,32.90
2018-07-02T19:28:55.556Z,33.80
2018-07-02T19:31:23.911Z,34.60
2018-07-02T19:33:52.181Z,33.90
2018-07-02T19:36:20.477Z,33.50
2018-07-02T19:38:48.946Z,33.80
2018-07-02T19:41:17.369Z,33.50
2018-07-02T19:43:45.800Z,34.80
2018-07-02T19:46:14.148Z,34.30
2018-07-02T19:48:43.575Z,33.70
2018-07-02T19:51:12.018Z,33.60
2018-07-02T19:53:41.140Z,33.80
2018-07-02T19:58:37.932Z,35.10
2018-07-02T20:01:06.640Z,34.20
2018-07-02T20:03:35.081Z,34.00
2018-07-02T20:06:03.727Z,33.70
2018-07-02T20:08:32.274Z,33.90
2018-07-02T20:11:00.638Z,34.10
2018-07-02T20:13:29.063Z,34.10
2018-07-02T20:15:57.471Z,33.90
2018-07-02T20:18:25.921Z,34.90
2018-07-02T20:20:54.265Z,33.90
2018-07-02T20:23:22.726Z,34.40
2018-07-02T20:25:51.200Z,34.90
2018-07-02T20:28:19.803Z,34.70
2018-07-02T20:30:48.236Z,34.40
2018-07-02T20:33:16.634Z,34.40
2018-07-02T20:35:45.017Z,34.40
2018-07-02T20:38:13.447Z,34.80
2018-07-02T20:40:41.870Z,35.50
2018-07-02T20:43:10.246Z,35.00
2018-07-02T20:45:39.443Z,34.70
2018-07-02T20:48:07.863Z,34.50
2018-07-02T20:50:36.672Z,34.40
2018-07-02T20:53:05.289Z,34.10
2018-07-02T20:55:33.717Z,35.70
2018-07-02T21:00:30.959Z,34.60
2018-07-02T21:03:00.511Z,35.00
2018-07-02T21:05:30.125Z,35.90
2018-07-02T21:07:58.728Z,36.20
2018-07-02T21:10:27.450Z,35.60
2018-07-02T21:12:55.833Z,35.20
2018-07-02T21:15:24.345Z,36.40
2018-07-02T21:17:53.756Z,36.60
2018-07-02T21:20:22.203Z,35.50
2018-07-02T21:22:50.606Z,34.60
2018-07-02T21:25:18.965Z,34.50
2018-07-02T21:27:47.648Z,34.20
2018-07-02T21:30:16.245Z,34.40
2018-07-02T21:32:44.685Z,34.40
2018-07-02T21:35:13.168Z,34.60
2018-07-02T21:40:09.711Z,34.60
2018-07-02T21:42:38.215Z,34.70
2018-07-02T21:45:06.669Z,34.70
2018-07-02T21:47:34.992Z,34.80
2018-07-02T21:50:03.355Z,35.20
2018-07-02T21:55:00.618Z,35.10
2018-07-02T21:57:28.944Z,35.10
2018-07-02T21:59:57.246Z,35.20
2018-07-02T22:02:25.604Z,35.20
2018-07-02T22:04:54.271Z,35.30
2018-07-02T22:07:22.675Z,35.20
2018-07-02T22:09:50.945Z,35.50
2018-07-02T22:12:19.333Z,35.30
2018-07-02T22:14:47.661Z,35.20
2018-07-02T22:17:16.011Z,35.40
2018-07-02T22:19:44.391Z,35.50
2018-07-02T22:22:12.698Z,35.70
2018-07-02T22:24:41.036Z,35.50
2018-07-02T22:27:09.423Z,35.50
2018-07-02T22:29:37.734Z,35.60
2018-07-02T22:32:06.308Z,35.60
2018-07-02T22:34:34.715Z,35.60
2018-07-02T22:37:03.164Z,35.60
2018-07-02T22:39:31.445Z,35.40
2018-07-02T22:41:59.707Z,35.40
2018-07-02T22:44:28.079Z,35.40
2018-07-02T22:46:56.389Z,35.50
2018-07-02T22:54:22.085Z,35.80
2018-07-02T22:56:50.758Z,35.80
2018-07-02T22:59:19.076Z,35.40
2018-07-02T23:01:47.384Z,35.30
2018-07-02T23:04:15.753Z,35.30
2018-07-02T23:06:44.136Z,35.80
2018-07-02T23:09:13.340Z,36.00
2018-07-02T23:11:41.744Z,36.00
2018-07-02T23:14:10.211Z,35.70
2018-07-02T23:16:38.664Z,35.60
2018-07-02T23:19:07.175Z,35.30
2018-07-02T23:21:35.631Z,35.30
2018-07-02T23:24:04.082Z,35.30
2018-07-02T23:26:33.248Z,35.20
2018-07-02T23:29:02.443Z,35.50
2018-07-02T23:31:30.833Z,37.00
2018-07-02T23:33:59.242Z,36.80
2018-07-02T23:36:27.653Z,37.10
2018-07-02T23:38:56.126Z,37.10
2018-07-02T23:41:24.539Z,36.80
2018-07-02T23:43:56.076Z,36.80
2018-07-02T23:46:24.531Z,37.30
2018-07-02T23:48:52.927Z,37.00
2018-07-02T23:51:21.328Z,37.50
2018-07-02T23:53:49.721Z,37.30
2018-07-02T23:56:18.068Z,37.40
2018-07-02T23:58:46.504Z,37.60
